createdAt,value
2022-11-12T00:04:32.971Z,4165.1
2022-11-12T00:10:08.520Z,4161.9
2022-11-12T00:16:01.889Z,4163.7
2022-11-12T00:21:37.496Z,4161.2
2022-11-12T00:27:13.972Z,4163.9
2022-11-12T00:32:49.064Z,4160.2
2022-11-12T00:38:27.188Z,4161
2022-11-12T00:44:04.087Z,4160.9
2022-11-12T00:49:39.244Z,4161.4
2022-11-12T00:55:14.624Z,4161.4
2022-11-12T01:00:50.824Z,4161
2022-11-12T01:06:26.286Z,4158.9
2022-11-12T01:12:01.935Z,4160.5
2022-11-12T01:17:37.177Z,4160.7
2022-11-12T01:23:12.058Z,4162.2
2022-11-12T01:28:47.744Z,4160.5
2022-11-12T01:34:24.498Z,4163.5
2022-11-12T01:39:59.440Z,4159.2
2022-11-12T01:45:34.735Z,4160.2
2022-11-12T01:51:10.902Z,4160.4
2022-11-12T01:56:46.941Z,4159.5
2022-11-12T02:02:22.367Z,4160.2
2022-11-12T02:08:00.027Z,4160.7
2022-11-12T02:13:35.014Z,4157.2
2022-11-12T02:19:10.936Z,4161.2
2022-11-12T02:24:47.704Z,4157.2
2022-11-12T02:30:22.588Z,4155.2
2022-11-12T02:35:58.865Z,4155.5
2022-11-12T02:41:34.106Z,4157
2022-11-12T02:47:31.525Z,4153.5
2022-11-12T02:53:06.152Z,4156
2022-11-12T02:58:42.937Z,4155.2
2022-11-12T03:04:18.372Z,4156.3
2022-11-12T03:09:54.106Z,4154.8
2022-11-12T03:15:29.346Z,4152.8
2022-11-12T03:21:04.254Z,4152.7
2022-11-12T03:26:39.582Z,4154.5
2022-11-12T03:32:23.424Z,4154.7
2022-11-12T03:37:58.580Z,4152
2022-11-12T03:43:34.888Z,4154.2
2022-11-12T03:49:31.846Z,4148.6
2022-11-12T03:55:04.562Z,4151.3
2022-11-12T04:00:40.513Z,4154.2
2022-11-12T04:06:15.785Z,4150.8
2022-11-12T04:11:50.834Z,4150.5
2022-11-12T04:17:31.524Z,4153.2
2022-11-12T04:23:07.105Z,4152.2
2022-11-12T04:28:42.146Z,4152.5
2022-11-12T04:34:17.660Z,4151.8
2022-11-12T04:39:53.563Z,4152.2
2022-11-12T04:45:28.721Z,4150.8
2022-11-12T04:51:04.677Z,4149.3
2022-11-12T04:56:40.224Z,4150.1
2022-11-12T05:02:15.365Z,4151.8
2022-11-12T05:07:52.351Z,4151.2
2022-11-12T05:13:27.855Z,4146.6
2022-11-12T05:19:02.598Z,4149.1
2022-11-12T05:24:43.937Z,4150
2022-11-12T05:30:19.180Z,4148.1
2022-11-12T05:35:55.133Z,4149
2022-11-12T05:42:15.126Z,4148
2022-11-12T05:48:12.959Z,4145.3
2022-11-12T05:53:46.468Z,4145.6
2022-11-12T05:59:23.191Z,4148.1
2022-11-12T06:05:02.022Z,4145.5
2022-11-12T06:10:37.186Z,4147.6
2022-11-12T06:16:12.666Z,4146.1
2022-11-12T06:21:49.756Z,4144.1
2022-11-12T06:27:25.555Z,4145.3
2022-11-12T06:33:01.224Z,4144.8
2022-11-12T06:38:38.616Z,4146
2022-11-12T06:44:23.244Z,4145.1
2022-11-12T06:49:58.678Z,4142.3
2022-11-12T06:55:33.931Z,4143.6
2022-11-12T07:01:14.622Z,4139.9
2022-11-12T07:06:51.573Z,4140.9
2022-11-12T07:12:27.085Z,4144.8
2022-11-12T07:18:03.237Z,4151.3
2022-11-12T07:23:40.191Z,4147.5
2022-11-12T07:29:50.052Z,4149.5
2022-11-12T07:35:25.060Z,4153.5
2022-11-12T07:41:00.634Z,4152
2022-11-12T07:46:35.843Z,4160.4
2022-11-12T07:52:10.942Z,4167.4
2022-11-12T07:57:46.747Z,4205.4
2022-11-12T08:03:22.552Z,4188.2
2022-11-12T08:08:57.303Z,4188
2022-11-12T08:14:36.756Z,4196.5
2022-11-12T08:20:13.251Z,4199.7
2022-11-12T08:25:48.169Z,4210.3
2022-11-12T08:31:28.948Z,4210.9
2022-11-12T08:37:04.568Z,4205.6
2022-11-12T08:42:51.993Z,4217.5
2022-11-12T08:48:49.459Z,4210.6
2022-11-12T08:54:25.285Z,4207.4
2022-11-12T09:00:03.348Z,4198.2
2022-11-12T09:05:38.601Z,4199.7
2022-11-12T09:11:15.686Z,4206.3
2022-11-12T09:16:50.559Z,4207.1
2022-11-12T09:22:27.153Z,4192.7
2022-11-12T09:28:02.387Z,4205.1
2022-11-12T09:33:38.342Z,4211.1
2022-11-12T09:39:13.855Z,4201.2
2022-11-12T09:44:49.101Z,4198.2
2022-11-12T09:50:24.447Z,4217.6
2022-11-12T09:56:00.869Z,4215.5
2022-11-12T10:01:48.958Z,4205.6
2022-11-12T10:07:23.824Z,4200.6
2022-11-12T10:12:59.258Z,4203.6
2022-11-12T10:18:34.815Z,4199.4
2022-11-12T10:24:10.757Z,4208.8
2022-11-12T10:29:45.967Z,4207.9
2022-11-12T10:35:21.214Z,4206.4
2022-11-12T10:40:57.177Z,4213.6
2022-11-12T10:46:54.287Z,4220.3
2022-11-12T10:52:27.398Z,4206.6
2022-11-12T10:58:02.469Z,4223.5
2022-11-12T11:03:37.936Z,4208.6
2022-11-12T11:09:13.182Z,4222.3
2022-11-12T11:14:48.521Z,4210.8
2022-11-12T11:20:32.864Z,4221.3
2022-11-12T11:26:08.796Z,4226
2022-11-12T11:31:43.853Z,4223.7
2022-11-12T11:37:19.666Z,4216.5
2022-11-12T11:42:56.116Z,4220.3
2022-11-12T11:48:52.828Z,4222.7
2022-11-12T11:54:26.220Z,4223.2
2022-11-12T12:00:02.087Z,4227.5
2022-11-12T12:05:37.326Z,4213.6
2022-11-12T12:11:14.871Z,4228.7
2022-11-12T12:16:50.345Z,4213.8
2022-11-12T12:22:25.624Z,4216
2022-11-12T12:28:01.791Z,4207.4
2022-11-12T12:33:37.036Z,4211.1
2022-11-12T12:39:12.954Z,4221.5
2022-11-12T12:44:48.843Z,4221.7
2022-11-12T12:50:24.669Z,4214.5
2022-11-12T12:55:59.707Z,4222.8
2022-11-12T13:01:35.559Z,4224.2
2022-11-12T13:07:13.270Z,4224.7
2022-11-12T13:12:48.477Z,4216.5
2022-11-12T13:18:24.370Z,4211.3
2022-11-12T13:24:00.558Z,4213.5
2022-11-12T13:29:36.202Z,4224.5
2022-11-12T13:35:11.394Z,4231
2022-11-12T13:40:47.256Z,4229.9
2022-11-12T13:46:44.622Z,4225.9
2022-11-12T13:52:18.278Z,4227.2
2022-11-12T13:57:54.771Z,4221.8
2022-11-12T14:03:29.914Z,4211.6
2022-11-12T14:09:05.613Z,4226
2022-11-12T14:14:40.856Z,4227.2
2022-11-12T14:20:17.035Z,4229.7
2022-11-12T14:25:53.859Z,4224
2022-11-12T14:31:29.414Z,4222
2022-11-12T14:37:04.664Z,4229.9
2022-11-12T14:42:39.958Z,4201.4
2022-11-12T14:48:36.713Z,4205.3
2022-11-12T14:54:09.989Z,4199.1
2022-11-12T14:59:45.539Z,4198.7
2022-11-12T15:05:22.793Z,4198.9
2022-11-12T15:10:57.501Z,4201.4
2022-11-12T15:16:33.039Z,4201.9
2022-11-12T15:22:08.284Z,4202.1
2022-11-12T15:27:42.989Z,4200.4
2022-11-12T15:33:18.831Z,4199.1
2022-11-12T15:38:54.375Z,4196.7
2022-11-12T15:44:30.083Z,4194.4
2022-11-12T15:50:05.539Z,4194.9
2022-11-12T15:55:40.782Z,4195.5
2022-11-12T16:01:16.793Z,4195
2022-11-12T16:06:53.471Z,4193.7
2022-11-12T16:12:29.042Z,4190
2022-11-12T16:18:04.231Z,4192
2022-11-12T16:23:40.193Z,4191
2022-11-12T16:29:15.744Z,4192.5
2022-11-12T16:34:50.467Z,4190.7
2022-11-12T16:40:25.986Z,4189
2022-11-12T16:46:01.525Z,4187
2022-11-12T16:51:37.487Z,4189.3
2022-11-12T16:57:15.219Z,4188.3
2022-11-12T17:02:55.304Z,4187.8
2022-11-12T17:08:35.085Z,4189.3
2022-11-12T17:14:12.306Z,4186
2022-11-12T17:19:47.937Z,4185.3
2022-11-12T17:25:23.235Z,4184.5
2022-11-12T17:30:59.034Z,4187.7
2022-11-12T17:36:42.284Z,4181.6
2022-11-12T17:42:23.633Z,4182.6
2022-11-12T17:48:02.616Z,4185.2
2022-11-12T17:53:41.327Z,4184.3
2022-11-12T17:59:16.574Z,4185.3
2022-11-12T18:04:51.781Z,4182.5
2022-11-12T18:10:27.027Z,4184.1
2022-11-12T18:16:02.043Z,4182
2022-11-12T18:21:37.581Z,4183.3
2022-11-12T18:27:13.029Z,4183.1
2022-11-12T18:32:48.940Z,4184.2
2022-11-12T18:38:24.592Z,4179.3
2022-11-12T18:43:59.829Z,4180.5
2022-11-12T18:49:34.714Z,4180.5
2022-11-12T18:55:10.376Z,4177.8
2022-11-12T19:00:46.580Z,4180.3
2022-11-12T19:06:21.889Z,4178.5
2022-11-12T19:11:58.976Z,4176.8
2022-11-12T19:17:34.482Z,4180.6
2022-11-12T19:23:09.536Z,4181.1
2022-11-12T19:28:46.574Z,4177.8
2022-11-12T19:34:22.437Z,4176.6
2022-11-12T19:39:57.509Z,4178.1
2022-11-12T19:45:33.895Z,4177.3
2022-11-12T19:51:10.370Z,4176.4
2022-11-12T19:56:45.392Z,4175.8
2022-11-12T20:02:20.906Z,4177.8
2022-11-12T20:07:56.461Z,4176.3
2022-11-12T20:13:31.543Z,4174.4
2022-11-12T20:19:07.008Z,4177.1
2022-11-12T20:24:42.265Z,4175.8
2022-11-12T20:30:17.403Z,4173.1
2022-11-12T20:35:52.804Z,4172.3
2022-11-12T20:41:28.041Z,4175.8
2022-11-12T20:47:24.917Z,4169.4
2022-11-12T20:52:57.975Z,4171.4
2022-11-12T20:58:33.792Z,4172.4
2022-11-12T21:04:08.799Z,4174.3
2022-11-12T21:09:44.041Z,4169.9
2022-11-12T21:15:19.278Z,4173.8
2022-11-12T21:20:54.377Z,4169.6
2022-11-12T21:26:30.169Z,4169.2
2022-11-12T21:32:06.006Z,4169.2
2022-11-12T21:37:41.075Z,4169.9
2022-11-12T21:43:16.545Z,4168.9
2022-11-12T21:49:13.687Z,4165.9
2022-11-12T21:54:46.576Z,4174.1
2022-11-12T22:00:44.205Z,4168.6
2022-11-12T22:06:20.059Z,4167.9
2022-11-12T22:11:56.125Z,4166.4
2022-11-12T22:17:32.450Z,4168.2
2022-11-12T22:23:08.006Z,4168.1
2022-11-12T22:28:42.984Z,4167.2
2022-11-12T22:34:19.160Z,4166.2
2022-11-12T22:39:54.408Z,4166.1
2022-11-12T22:45:29.362Z,4163.7
2022-11-12T22:51:05.904Z,4162.4
2022-11-12T22:56:41.625Z,4167.2
2022-11-12T23:02:16.553Z,4160.7
2022-11-12T23:07:52.271Z,4163.4
2022-11-12T23:13:27.526Z,4161.9
2022-11-12T23:19:02.324Z,4162
2022-11-12T23:24:38.366Z,4161.7
2022-11-12T23:30:13.920Z,4163
2022-11-12T23:35:48.815Z,4160.4
2022-11-12T23:41:24.471Z,4162
2022-11-12T23:47:21.929Z,4157.5
2022-11-12T23:52:55.576Z,4161.7
2022-11-12T23:58:32.878Z,4160
